• Join FlightAware (Why Join?)
  • Login
  • US Flag 
01:18AM EDT


 

Airport Tracker/Info


-or-


 

Live Flight TrackerFlight Track Log ✈ ACA342 ✈ 24-Apr-2013 ✈ CYYZ - KPHL

Flight Track Log - Related Links

Times and Time Zones

All times are in EDT time to prevent confusion due to time zone crossing. See the ACA342 flight status page for this flight to view local times or setup timezone preferences in your user account.

Time Position Orientation Groundspeed Altitude Reporting Facility
EDT Latitude Longitude Course Direction KTS MPH feet Rate Location/Type
01:25PM 43.6833 -79.6333 117° Southeast 150 173 1,800  Level Toronto Center
01:26PM 43.7333 -79.6500 346° North 220 253 4,600 2,100 Climbing Toronto Center
01:27PM 43.7833 -79.6333 14° North 270 311 6,000 1,140 Climbing Toronto Center
01:28PM 43.4584 -79.3577 122° Southeast  Level Estimated
01:28PM 43.8333 -79.5167 59° Northeast 310 357 6,900  Level Toronto Center
01:29PM 43.4634 -79.2224 87° East  Level FlightAware Approximate
01:29PM 43.7833 -79.4500 136° Southeast 270 311 7,000  Level Toronto Center
01:30PM 43.3892 -79.1337 125° Southeast  Level Estimated
01:30PM 43.7333 -79.3500 125° Southeast 280 322 9,900  Level Toronto Center
01:31PM 43.3148 -79.0452 117° Southeast  Level Estimated
01:31PM 43.6833 -79.2833 136° Southeast 290 334 13,500  Level Toronto Center
01:32PM 43.6167 -79.2000 138° Southeast 300 345 16,600 2,520 Climbing Toronto Center
01:33PM 43.5500 -79.1000 133° Southeast 330 380 18,600 2,160 Climbing Toronto Center
01:34PM 43.4833 -78.9833 128° Southeast 370 426 21,000 2,280 Climbing Toronto Center
01:35PM 43.4167 -78.9000 138° Southeast 390 449 23,200 2,400 Climbing Toronto Center
01:36PM 43.3500 -78.7667 124° Southeast 410 472 25,800 1,980 Climbing Toronto Center
01:37PM 43.3064 -78.7489 163° South 396 456 26,200 780 Climbing Cleveland Center
01:38PM 43.1997 -78.7178 168° South 375 432 27,000 360 Climbing Cleveland Center
01:39PM 43.0928 -78.6842 167° South 380 437 27,000  Level Cleveland Center
01:40PM 42.9817 -78.6506 168° South 392 451 27,000  Level Cleveland Center
01:41PM 42.8750 -78.6200 168° South 397 457 27,000  Level Cleveland Center
01:42PM 42.7703 -78.5892 168° South 397 457 27,000  Level Cleveland Center
01:43PM 42.6633 -78.5589 168° South 392 451 27,000  Level Cleveland Center
01:44PM 42.5711 -78.5306 167° South 387 445 27,000  Level Cleveland Center
01:45PM 42.4936 -78.5078 168° South 327 376 27,000  Level Cleveland Center
01:46PM 42.4078 -78.4853 169° South 307 353 27,000  Level Cleveland Center
01:47PM 42.3092 -78.4550 167° South 331 381 27,000  Level Cleveland Center
01:48PM 42.1981 -78.4222 168° South 375 432 27,000  Level Cleveland Center
01:49PM 42.0997 -78.4003 171° South 403 464 27,000  Level Cleveland Center
01:50PM 41.9886 -78.3650 167° South 408 470 27,000  Level Cleveland Center
01:51PM 41.8839 -78.3325 167° South 408 470 27,000  Level Cleveland Center
01:52PM 41.7728 -78.3028 169° South 403 464 27,000  Level Cleveland Center
01:53PM 41.6636 -78.2706 168° South 403 464 27,000  Level Cleveland Center
01:54PM 41.5544 -78.2383 168° South 403 464 27,000  Level Cleveland Center
01:56PM 41.3547 -78.1814 168° South 405 466 27,000 -300 Level New York Center
01:57PM 41.2481 -78.1533 169° South 405 466 26,200 -900 Descending New York Center
01:58PM 41.1403 -78.1083 163° South 405 466 25,200 -600 Descending New York Center
01:59PM 41.0397 -78.0533 158° South 405 466 25,000 -180 Descending New York Center
02:00PM 40.9344 -78.0011 159° South 405 466 24,900 -600 Descending New York Center
02:01PM 40.8511 -77.8989 137° Southeast 395 455 23,900 -960 Descending New York Center
02:02PM 40.7767 -77.7842 131° Southeast 408 470 23,000 -1,080 Descending New York Center
02:03PM 40.7000 -77.6694 131° Southeast 408 470 21,800 -1,260 Descending New York Center
02:04PM 40.6311 -77.5614 130° Southeast 401 461 20,500 -1,440 Descending New York Center
02:05PM 40.5503 -77.4414 132° Southeast 394 453 19,000 -780 Descending New York Center
02:06PM 40.4961 -77.3297 123° Southeast 398 458 19,000  Level New York Center
02:07PM 40.4439 -77.1828 115° Southeast 403 464 19,000  Level New York Center
02:08PM 40.4000 -77.0642 116° Southeast 403 464 19,000  Level New York Center
02:09PM 40.3531 -76.9264 114° Southeast 408 470 19,000  Level New York Center
02:10PM 40.3089 -76.7728 111° Southeast 408 470 19,000 -360 Level New York Center
02:11PM 40.2786 -76.6314 106° East 408 470 18,300 -900 Descending New York Center
02:12PM 40.2550 -76.5178 105° East 381 438 17,300 -1,020 Descending New York Center
02:13PM 40.2272 -76.3986 107° East 357 411 16,300 -1,200 Descending New York Center
02:13PM 40.2150 -76.3431 106° East 350 403 15,700 -1,620 Descending FAA TRACON SMA TRACON (SMA)
02:13PM 40.2061 -76.3050 107° East 349 402 15,200 -1,740 Descending FAA TRACON SMA TRACON (SMA)
02:14PM 40.1961 -76.2564 105° East 348 400 14,600 -1,740 Descending FAA TRACON SMA TRACON (SMA)
02:14PM 40.1878 -76.2192 106° East 347 399 14,100 -1,560 Descending FAA TRACON SMA TRACON (SMA)
02:14PM 40.1800 -76.1819 105° East 346 398 13,600 -1,380 Descending FAA TRACON SMA TRACON (SMA)
02:15PM 40.1736 -76.1447 103° East 346 398 13,200 -1,680 Descending FAA TRACON SMA TRACON (SMA)
02:15PM 40.1614 -76.0994 109° East 345 397 12,500 -1,800 Descending FAA TRACON SMA TRACON (SMA)
02:15PM 40.1503 -76.0678 115° Southeast 343 395 12,000 -1,500 Descending FAA TRACON SMA TRACON (SMA)
02:16PM 40.1453 -76.0261 99° East 340 391 11,500 -1,680 Descending FAA TRACON SMA TRACON (SMA)
02:16PM 40.1350 -75.9808 107° East 339 390 10,900 -1,680 Descending FAA TRACON SMA TRACON (SMA)
02:16PM 40.1269 -75.9450 106° East 337 388 10,400 -1,320 Descending FAA TRACON SMA TRACON (SMA)
02:17PM 40.1189 -75.9103 107° East 330 380 10,000 -1,500 Descending FAA TRACON SMA TRACON (SMA)
02:17PM 40.1094 -75.8678 106° East 319 367 9,400 -1,500 Descending FAA TRACON SMA TRACON (SMA)
02:17PM 40.1019 -75.8356 107° East 311 358 9,000 -1,200 Descending FAA TRACON SMA TRACON (SMA)
02:18PM 40.0947 -75.8033 106° East 302 348 8,600 -1,380 Descending FAA TRACON SMA TRACON (SMA)
02:18PM 40.0858 -75.7636 106° East 296 341 8,100 -900 Descending FAA TRACON SMA TRACON (SMA)
02:18PM 40.0789 -75.7333 107° East 285 328 8,000 -180 Descending FAA TRACON SMA TRACON (SMA)
02:19PM 40.0839 -75.6975 80° East 284 327 8,000  Level FAA TRACON SMA TRACON (SMA)
02:19PM 40.0978 -75.6744 52° Northeast 263 303 8,000  Level FAA TRACON SMA TRACON (SMA)
02:19PM 40.1128 -75.6514 50° Northeast 267 307 8,000  Level FAA TRACON SMA TRACON (SMA)
02:20PM 40.1336 -75.5931 65° Northeast 268 308 8,000 -120 Level FAA TRACON SMA TRACON (SMA)
02:20PM 40.1322 -75.5628 93° East 265 305 7,900 -780 Descending FAA TRACON SMA TRACON (SMA)
02:21PM 40.1300 -75.5275 95° East 260 299 7,500 -1,200 Descending FAA TRACON SMA TRACON (SMA)
02:21PM 40.1289 -75.4972 93° East 261 300 7,100 -1,260 Descending FAA TRACON SMA TRACON (SMA)
02:21PM 40.1278 -75.4686 93° East 258 297 6,700 -1,080 Descending FAA TRACON SMA TRACON (SMA)
02:22PM 40.1278 -75.4397 90° East 258 297 6,400 -1,080 Descending FAA TRACON SMA TRACON (SMA)
02:22PM 40.1256 -75.4044 95° East 252 290 6,000 -600 Descending FAA TRACON SMA TRACON (SMA)
02:22PM 40.1178 -75.3803 113° Southeast 232 267 6,000  Level FAA TRACON SMA TRACON (SMA)
02:23PM 40.1108 -75.3547 110° East 245 282 6,000  Level FAA TRACON SMA TRACON (SMA)
02:23PM 40.1019 -75.3239 111° Southeast 239 275 6,000  Level FAA TRACON SMA TRACON (SMA)
02:23PM 40.0944 -75.2986 111° Southeast 239 275 6,000  Level FAA TRACON SMA TRACON (SMA)
02:24PM 40.0872 -75.2736 111° Southeast 240 276 6,000  Level FAA TRACON SMA TRACON (SMA)
02:24PM 40.0775 -75.2428 112° Southeast 226 260 6,000  Level FAA TRACON SMA TRACON (SMA)
02:24PM 40.0636 -75.2317 149° Southeast 217 250 6,000  Level FAA TRACON SMA TRACON (SMA)
02:25PM 40.0442 -75.2217 159° South 215 247 6,000  Level FAA TRACON SMA TRACON (SMA)
02:25PM 40.0222 -75.2122 162° South 213 245 6,000  Level FAA TRACON SMA TRACON (SMA)
02:25PM 40.0072 -75.1969 142° Southeast 241 277 6,000  Level FAA TRACON SMA TRACON (SMA)
02:26PM 40.0031 -75.1706 102° East 250 288 6,000  Level FAA TRACON SMA TRACON (SMA)
02:26PM 40.0025 -75.1433 92° East 263 303 6,000 -180 Level FAA TRACON SMA TRACON (SMA)
02:26PM 40.0025 -75.1122 90° East 232 267 5,900 -780 Descending FAA TRACON SMA TRACON (SMA)
02:27PM 40.0019 -75.0853 92° East 225 259 5,500 -1,500 Descending FAA TRACON SMA TRACON (SMA)
02:27PM 39.9933 -75.0656 120° Southeast 194 223 4,900 -1,980 Descending FAA TRACON SMA TRACON (SMA)
02:27PM 39.9744 -75.0550 157° South 185 213 4,200 -1,800 Descending FAA TRACON SMA TRACON (SMA)
02:28PM 39.9592 -75.0486 162° South 192 221 3,700 -1,680 Descending FAA TRACON SMA TRACON (SMA)
02:28PM 39.9414 -75.0550 195° South 173 199 3,100 -1,800 Descending FAA TRACON SMA TRACON (SMA)
02:28PM 39.9281 -75.0650 210° Southwest 169 194 2,500 -1,500 Descending FAA TRACON SMA TRACON (SMA)
02:29PM 39.9164 -75.0750 213° Southwest 162 186 2,100 -600 Descending FAA TRACON SMA TRACON (SMA)
02:29PM 39.9064 -75.0867 222° Southwest 157 181 2,100 -540 Level FAA TRACON SMA TRACON (SMA)
02:30PM 39.8944 -75.1222 246° West 159 183 1,600 -840 Descending FAA TRACON SMA TRACON (SMA)
02:30PM 39.8911 -75.1389 255° West 153 176 1,300 -780 Descending FAA TRACON SMA TRACON (SMA)
02:30PM 39.8878 -75.1589 258° West 146 168 1,100 -600 Descending FAA TRACON SMA TRACON (SMA)